AAL1397 KBOS-KMIA
Flight info
| Callsign | AAL1397 |
|---|---|
| Flight time | 3h 12m |
| Altitude | 36000 |
| Route | SSOXS7 SSOXS Q167 RIFLE DCT HEADI Q97 KALDA Q101 SKARP Y313 HOAGG BNFSH2 |
| Aircraft | B738/M-SDE2E3FGHIRWXY/LB1 |
Departure
| Time | 2026-05-07 23:12 |
|---|---|
| Airport | Boston Logan International Airport (KBOS) |
Arrival
| Time | 2026-05-08 02:24 |
|---|---|
| Airport | Miami International Airport (KMIA) |
| Time | Latitude | Longitude | Altitude | Speed | Heading |
|---|---|---|---|---|---|
| 2026-05-07 22:37 | 42.36018 | -71.01868 | 24 ft | 0 kts | 31° |
| 2026-05-07 22:57 | 42.36017 | -71.01869 | 24 ft | 0 kts | 31° |
| 2026-05-07 22:57 | 42.36003 | -71.01880 | 29 ft | 3 kts | 38° |
| 2026-05-07 22:58 | 42.35991 | -71.01899 | 30 ft | 3 kts | 69° |
| 2026-05-07 22:58 | 42.35987 | -71.01924 | 30 ft | 3 kts | 86° |
| 2026-05-07 22:58 | 42.35986 | -71.01950 | 30 ft | 3 kts | 92° |
| 2026-05-07 22:58 | 42.35988 | -71.01975 | 26 ft | 3 kts | 110° |
| 2026-05-07 22:59 | 42.35990 | -71.01981 | 26 ft | 0 kts | 118° |
| 2026-05-07 23:02 | 42.35987 | -71.01973 | 26 ft | 3 kts | 118° |
| 2026-05-07 23:02 | 42.35966 | -71.01925 | 20 ft | 8 kts | 122° |
| 2026-05-07 23:03 | 42.35934 | -71.01852 | 27 ft | 9 kts | 117° |
| 2026-05-07 23:03 | 42.35914 | -71.01770 | 27 ft | 9 kts | 103° |
| 2026-05-07 23:03 | 42.35904 | -71.01712 | 28 ft | 1 kts | 102° |
| 2026-05-07 23:03 | 42.35899 | -71.01680 | 28 ft | 8 kts | 102° |
| 2026-05-07 23:04 | 42.35890 | -71.01592 | 27 ft | 10 kts | 90° |
| 2026-05-07 23:04 | 42.35931 | -71.01529 | 29 ft | 10 kts | 20° |
| 2026-05-07 23:04 | 42.35995 | -71.01498 | 26 ft | 10 kts | 19° |
| 2026-05-07 23:04 | 42.36057 | -71.01468 | 27 ft | 10 kts | 19° |
| 2026-05-07 23:05 | 42.36119 | -71.01438 | 26 ft | 9 kts | 19° |
| 2026-05-07 23:05 | 42.36183 | -71.01407 | 25 ft | 11 kts | 22° |
| 2026-05-07 23:05 | 42.36261 | -71.01368 | 22 ft | 13 kts | 19° |
| 2026-05-07 23:05 | 42.36325 | -71.01295 | 23 ft | 13 kts | 92° |
| 2026-05-07 23:06 | 42.36280 | -71.01192 | 25 ft | 13 kts | 121° |
| 2026-05-07 23:06 | 42.36241 | -71.01087 | 27 ft | 12 kts | 114° |
| 2026-05-07 23:06 | 42.36207 | -71.00982 | 24 ft | 12 kts | 114° |
| 2026-05-07 23:06 | 42.36174 | -71.00882 | 24 ft | 12 kts | 114° |
| 2026-05-07 23:07 | 42.36140 | -71.00780 | 22 ft | 12 kts | 113° |
| 2026-05-07 23:07 | 42.36112 | -71.00681 | 22 ft | 11 kts | 110° |
| 2026-05-07 23:07 | 42.36087 | -71.00583 | 22 ft | 11 kts | 108° |
| 2026-05-07 23:07 | 42.36064 | -71.00488 | 24 ft | 11 kts | 110° |
| 2026-05-07 23:08 | 42.36039 | -71.00397 | 26 ft | 10 kts | 109° |
| 2026-05-07 23:08 | 42.36016 | -71.00305 | 28 ft | 10 kts | 108° |
| 2026-05-07 23:08 | 42.35994 | -71.00218 | 26 ft | 10 kts | 109° |
| 2026-05-07 23:08 | 42.35971 | -71.00131 | 27 ft | 11 kts | 110° |
| 2026-05-07 23:09 | 42.35924 | -71.00035 | 27 ft | 15 kts | 132° |
| 2026-05-07 23:09 | 42.35847 | -70.99930 | 29 ft | 15 kts | 135° |
| 2026-05-07 23:09 | 42.35773 | -70.99833 | 28 ft | 15 kts | 135° |
| 2026-05-07 23:09 | 42.35702 | -70.99737 | 28 ft | 14 kts | 135° |
| 2026-05-07 23:10 | 42.35632 | -70.99641 | 25 ft | 14 kts | 135° |
| 2026-05-07 23:10 | 42.35566 | -70.99553 | 23 ft | 13 kts | 135° |
| 2026-05-07 23:10 | 42.35503 | -70.99466 | 23 ft | 13 kts | 129° |
| 2026-05-07 23:10 | 42.35491 | -70.99354 | 26 ft | 12 kts | 75° |
| 2026-05-07 23:11 | 42.35550 | -70.99289 | 26 ft | 14 kts | 342° |
| 2026-05-07 23:11 | 42.35702 | -70.99481 | 25 ft | 59 kts | 315° |
| 2026-05-07 23:11 | 42.36153 | -71.00080 | 27 ft | 121 kts | 315° |
| 2026-05-07 23:11 | 42.36864 | -71.01043 | 177 ft | 158 kts | 312° |
| 2026-05-07 23:12 | 42.37659 | -71.02097 | 884 ft | 166 kts | 309° |
| 2026-05-07 23:12 | 42.38573 | -71.03244 | 1262 ft | 197 kts | 311° |
| 2026-05-07 23:12 | 42.39510 | -71.04558 | 2178 ft | 175 kts | 293° |
| 2026-05-07 23:12 | 42.40070 | -71.05755 | 3571 ft | 137 kts | 296° |
| 2026-05-07 23:13 | 42.40579 | -71.06950 | 3778 ft | 168 kts | 287° |
| 2026-05-07 23:13 | 42.40946 | -71.08481 | 4329 ft | 168 kts | 274° |
| 2026-05-07 23:13 | 42.41065 | -71.10026 | 5135 ft | 164 kts | 266° |
| 2026-05-07 23:13 | 42.40818 | -71.11597 | 5496 ft | 182 kts | 248° |
| 2026-05-07 23:14 | 42.40255 | -71.13022 | 6449 ft | 154 kts | 242° |
| 2026-05-07 23:14 | 42.39734 | -71.14258 | 7111 ft | 160 kts | 242° |
| 2026-05-07 23:14 | 42.39057 | -71.15692 | 7088 ft | 196 kts | 235° |
| 2026-05-07 23:14 | 42.38152 | -71.17170 | 7403 ft | 214 kts | 230° |
| 2026-05-07 23:15 | 42.37020 | -71.18669 | 7580 ft | 244 kts | 223° |
| 2026-05-07 23:15 | 42.35594 | -71.20068 | 8092 ft | 260 kts | 216° |
| 2026-05-07 23:15 | 42.33952 | -71.21211 | 8870 ft | 270 kts | 201° |
| 2026-05-07 23:15 | 42.32061 | -71.21468 | 9825 ft | 280 kts | 180° |
| 2026-05-07 23:16 | 42.30179 | -71.20691 | 10489 ft | 299 kts | 160° |
| 2026-05-07 23:16 | 42.28331 | -71.19178 | 10922 ft | 318 kts | 155° |
| 2026-05-07 23:16 | 42.26397 | -71.17644 | 11438 ft | 327 kts | 157° |
| 2026-05-07 23:16 | 42.24407 | -71.16067 | 12011 ft | 337 kts | 154° |
| 2026-05-07 23:17 | 42.22649 | -71.13841 | 12579 ft | 359 kts | 135° |
| 2026-05-07 23:17 | 42.21074 | -71.11222 | 13218 ft | 363 kts | 139° |
| 2026-05-07 23:17 | 42.19357 | -71.08823 | 13837 ft | 363 kts | 144° |
| 2026-05-07 23:17 | 42.17485 | -71.06541 | 14443 ft | 364 kts | 147° |
| 2026-05-07 23:18 | 42.15551 | -71.04296 | 15057 ft | 366 kts | 148° |
| 2026-05-07 23:18 | 42.13572 | -71.02218 | 15669 ft | 364 kts | 153° |
| 2026-05-07 23:18 | 42.11481 | -71.00266 | 16326 ft | 363 kts | 155° |
| 2026-05-07 23:18 | 42.09394 | -70.98383 | 16942 ft | 364 kts | 155° |
| 2026-05-07 23:19 | 42.07284 | -70.96477 | 17602 ft | 365 kts | 155° |
| 2026-05-07 23:19 | 42.05211 | -70.94585 | 18214 ft | 365 kts | 155° |
| 2026-05-07 23:19 | 42.03117 | -70.92656 | 18756 ft | 365 kts | 155° |
| 2026-05-07 23:19 | 42.01027 | -70.90718 | 19283 ft | 366 kts | 155° |
| 2026-05-07 23:20 | 41.98933 | -70.88772 | 19795 ft | 366 kts | 155° |
| 2026-05-07 23:20 | 41.96847 | -70.86831 | 20293 ft | 366 kts | 155° |
| 2026-05-07 23:20 | 41.94739 | -70.84871 | 20813 ft | 366 kts | 155° |
| 2026-05-07 23:20 | 41.92664 | -70.82942 | 21399 ft | 366 kts | 153° |
| 2026-05-07 23:21 | 41.90616 | -70.81069 | 21709 ft | 367 kts | 137° |
| 2026-05-07 23:21 | 41.88488 | -70.78942 | 22138 ft | 366 kts | 154° |
| 2026-05-07 23:21 | 41.86358 | -70.77117 | 22539 ft | 357 kts | 167° |
| 2026-05-07 23:21 | 41.83965 | -70.76405 | 22173 ft | 355 kts | 190° |
| 2026-05-07 23:22 | 41.81519 | -70.76989 | 21708 ft | 364 kts | 206° |
| 2026-05-07 23:22 | 41.79963 | -70.77897 | 21453 ft | 372 kts | 216° |
| 2026-05-07 23:22 | 41.77942 | -70.80112 | 21126 ft | 383 kts | 231° |
| 2026-05-07 23:22 | 41.76212 | -70.82878 | 20875 ft | 399 kts | 234° |
| 2026-05-07 23:23 | 41.74474 | -70.85882 | 21009 ft | 405 kts | 234° |
| 2026-05-07 23:23 | 41.72766 | -70.88886 | 21423 ft | 405 kts | 235° |
| 2026-05-07 23:23 | 41.71073 | -70.91838 | 22283 ft | 392 kts | 235° |
| 2026-05-07 23:23 | 41.69434 | -70.94654 | 23244 ft | 378 kts | 235° |
| 2026-05-07 23:24 | 41.67828 | -70.97383 | 23932 ft | 371 kts | 235° |
| 2026-05-07 23:24 | 41.66223 | -71.00092 | 24266 ft | 371 kts | 235° |
| 2026-05-07 23:24 | 41.64609 | -71.02802 | 24513 ft | 374 kts | 235° |
| 2026-05-07 23:24 | 41.62976 | -71.05536 | 24807 ft | 375 kts | 235° |
| 2026-05-07 23:25 | 41.61353 | -71.08244 | 25121 ft | 376 kts | 235° |
| 2026-05-07 23:25 | 41.59710 | -71.10978 | 25436 ft | 376 kts | 235° |
| 2026-05-07 23:25 | 41.58064 | -71.13715 | 25729 ft | 377 kts | 235° |
| 2026-05-07 23:25 | 41.56421 | -71.16443 | 26023 ft | 378 kts | 235° |
| 2026-05-07 23:26 | 41.54773 | -71.19177 | 26365 ft | 377 kts | 235° |
| 2026-05-07 23:26 | 41.53132 | -71.21895 | 26833 ft | 373 kts | 235° |
| 2026-05-07 23:26 | 41.51518 | -71.24565 | 27308 ft | 369 kts | 235° |
| 2026-05-07 23:26 | 41.49906 | -71.27229 | 27749 ft | 366 kts | 235° |
| 2026-05-07 23:27 | 41.46739 | -71.32463 | 28489 ft | 362 kts | 235° |
| 2026-05-07 23:27 | 41.45148 | -71.35089 | 28887 ft | 360 kts | 235° |
| 2026-05-07 23:27 | 41.43580 | -71.37674 | 29269 ft | 358 kts | 235° |
| 2026-05-07 23:28 | 41.42016 | -71.40251 | 29605 ft | 357 kts | 236° |
| 2026-05-07 23:28 | 41.40459 | -71.42816 | 29928 ft | 355 kts | 236° |
| 2026-05-07 23:28 | 41.38903 | -71.45375 | 30214 ft | 354 kts | 236° |
| 2026-05-07 23:28 | 41.37358 | -71.47915 | 30474 ft | 353 kts | 236° |
| 2026-05-07 23:29 | 41.35806 | -71.50463 | 30723 ft | 353 kts | 236° |
| 2026-05-07 23:29 | 41.34268 | -71.52986 | 30962 ft | 352 kts | 236° |
| 2026-05-07 23:29 | 41.32724 | -71.55518 | 31218 ft | 351 kts | 236° |
| 2026-05-07 23:29 | 41.31190 | -71.58030 | 31485 ft | 349 kts | 236° |
| 2026-05-07 23:30 | 41.29662 | -71.60530 | 31696 ft | 348 kts | 236° |
| 2026-05-07 23:30 | 41.28129 | -71.63037 | 31911 ft | 348 kts | 236° |
| 2026-05-07 23:30 | 41.26601 | -71.65535 | 32124 ft | 348 kts | 236° |
| 2026-05-07 23:30 | 41.25082 | -71.68014 | 32353 ft | 347 kts | 236° |
| 2026-05-07 23:31 | 41.23554 | -71.70506 | 32564 ft | 346 kts | 236° |
| 2026-05-07 23:31 | 41.22037 | -71.72979 | 32737 ft | 346 kts | 236° |
| 2026-05-07 23:31 | 41.20515 | -71.75459 | 32946 ft | 345 kts | 236° |
| 2026-05-07 23:31 | 41.19000 | -71.77924 | 33156 ft | 344 kts | 236° |
| 2026-05-07 23:32 | 41.17486 | -71.80384 | 33352 ft | 344 kts | 237° |
| 2026-05-07 23:32 | 41.16289 | -71.82331 | 33482 ft | 344 kts | 237° |
| 2026-05-07 23:33 | 41.11715 | -71.89751 | 33990 ft | 342 kts | 237° |
| 2026-05-07 23:33 | 41.10188 | -71.92223 | 34114 ft | 342 kts | 237° |
| 2026-05-07 23:33 | 41.08680 | -71.94664 | 34241 ft | 342 kts | 237° |
| 2026-05-07 23:33 | 41.07191 | -71.97072 | 34381 ft | 341 kts | 237° |
| 2026-05-07 23:34 | 41.05674 | -71.99522 | 34495 ft | 341 kts | 237° |
| 2026-05-07 23:34 | 41.04169 | -72.01953 | 34598 ft | 341 kts | 237° |
| 2026-05-07 23:34 | 41.02664 | -72.04382 | 34731 ft | 341 kts | 237° |
| 2026-05-07 23:34 | 41.01160 | -72.06805 | 34856 ft | 340 kts | 237° |
| 2026-05-07 23:35 | 40.99659 | -72.09223 | 34962 ft | 340 kts | 237° |
| 2026-05-07 23:35 | 40.98156 | -72.11642 | 35048 ft | 340 kts | 237° |
| 2026-05-07 23:35 | 40.96657 | -72.14053 | 35156 ft | 340 kts | 237° |
| 2026-05-07 23:35 | 40.95152 | -72.16469 | 35283 ft | 339 kts | 237° |
| 2026-05-07 23:36 | 40.92150 | -72.21288 | 35457 ft | 339 kts | 237° |
| 2026-05-07 23:36 | 40.89150 | -72.26096 | 35656 ft | 338 kts | 237° |
| 2026-05-07 23:37 | 40.87652 | -72.28493 | 35761 ft | 338 kts | 237° |
| 2026-05-07 23:37 | 40.86154 | -72.30888 | 35793 ft | 338 kts | 237° |
| 2026-05-07 23:37 | 40.83151 | -72.35688 | 35805 ft | 340 kts | 237° |
| 2026-05-07 23:38 | 40.80146 | -72.40482 | 35813 ft | 342 kts | 237° |
| 2026-05-07 23:38 | 40.77107 | -72.45323 | 35816 ft | 344 kts | 237° |
| 2026-05-07 23:39 | 40.74044 | -72.50194 | 35816 ft | 346 kts | 237° |
| 2026-05-07 23:39 | 40.70957 | -72.55095 | 35816 ft | 348 kts | 237° |
| 2026-05-07 23:40 | 40.67830 | -72.60059 | 35814 ft | 350 kts | 237° |
| 2026-05-07 23:40 | 40.64732 | -72.65015 | 35814 ft | 352 kts | 237° |
| 2026-05-07 23:41 | 40.61598 | -72.70028 | 35812 ft | 355 kts | 237° |
| 2026-05-07 23:41 | 40.58473 | -72.75017 | 35810 ft | 357 kts | 237° |
| 2026-05-07 23:42 | 40.55282 | -72.80100 | 35810 ft | 359 kts | 237° |
| 2026-05-07 23:42 | 40.52093 | -72.85172 | 35813 ft | 361 kts | 237° |
| 2026-05-07 23:43 | 40.48900 | -72.90242 | 35812 ft | 363 kts | 237° |
| 2026-05-07 23:43 | 40.45648 | -72.95397 | 35818 ft | 365 kts | 237° |
| 2026-05-07 23:44 | 40.42428 | -73.00491 | 35815 ft | 367 kts | 237° |
| 2026-05-07 23:44 | 40.39152 | -73.05667 | 35818 ft | 369 kts | 237° |
| 2026-05-07 23:45 | 40.35862 | -73.10855 | 35814 ft | 370 kts | 237° |
| 2026-05-07 23:45 | 40.32569 | -73.16039 | 35816 ft | 371 kts | 237° |
| 2026-05-07 23:46 | 40.29265 | -73.21231 | 35819 ft | 371 kts | 237° |
| 2026-05-07 23:46 | 40.25955 | -73.26425 | 35821 ft | 371 kts | 237° |
| 2026-05-07 23:47 | 40.22651 | -73.31600 | 35819 ft | 370 kts | 237° |
| 2026-05-07 23:47 | 40.19379 | -73.36718 | 35820 ft | 369 kts | 237° |
| 2026-05-07 23:48 | 40.16089 | -73.41854 | 35821 ft | 368 kts | 237° |
| 2026-05-07 23:48 | 40.12806 | -73.46973 | 35823 ft | 367 kts | 236° |
| 2026-05-07 23:49 | 40.09529 | -73.52074 | 35824 ft | 366 kts | 236° |
| 2026-05-07 23:49 | 40.06257 | -73.57159 | 35827 ft | 365 kts | 236° |
| 2026-05-07 23:50 | 40.02989 | -73.62231 | 35834 ft | 365 kts | 236° |
| 2026-05-07 23:50 | 39.99722 | -73.67293 | 35837 ft | 364 kts | 236° |
| 2026-05-07 23:51 | 39.96359 | -73.72256 | 35831 ft | 369 kts | 231° |
| 2026-05-07 23:51 | 39.92256 | -73.76433 | 35844 ft | 377 kts | 225° |
| 2026-05-07 23:52 | 39.87989 | -73.80428 | 35837 ft | 378 kts | 225° |
| 2026-05-07 23:52 | 39.83715 | -73.84444 | 35842 ft | 379 kts | 225° |
| 2026-05-07 23:53 | 39.79444 | -73.88467 | 35842 ft | 380 kts | 225° |
| 2026-05-07 23:53 | 39.77302 | -73.90486 | 35946 ft | 380 kts | 224° |
| 2026-05-07 23:53 | 39.75153 | -73.92509 | 35887 ft | 382 kts | 224° |
| 2026-05-07 23:54 | 39.70864 | -73.96543 | 35852 ft | 384 kts | 224° |
| 2026-05-07 23:54 | 39.66536 | -74.00606 | 35845 ft | 384 kts | 224° |
| 2026-05-07 23:55 | 39.62201 | -74.04668 | 35837 ft | 384 kts | 224° |
| 2026-05-07 23:55 | 39.57873 | -74.08719 | 35836 ft | 384 kts | 224° |
| 2026-05-07 23:56 | 39.53550 | -74.12760 | 35837 ft | 383 kts | 224° |
| 2026-05-07 23:56 | 39.49183 | -74.16787 | 35836 ft | 383 kts | 223° |
| 2026-05-07 23:57 | 39.44847 | -74.20710 | 35834 ft | 382 kts | 223° |
| 2026-05-07 23:57 | 39.40484 | -74.24651 | 35833 ft | 382 kts | 223° |
| 2026-05-07 23:58 | 39.36135 | -74.28582 | 35835 ft | 381 kts | 223° |
| 2026-05-07 23:58 | 39.31788 | -74.32509 | 35828 ft | 381 kts | 223° |
| 2026-05-07 23:59 | 39.27441 | -74.36433 | 35831 ft | 381 kts | 223° |
| 2026-05-07 23:59 | 39.23091 | -74.40352 | 35830 ft | 381 kts | 223° |
| 2026-05-08 00:00 | 39.19443 | -74.43634 | 35834 ft | 382 kts | 223° |
| 2026-05-08 00:00 | 39.15084 | -74.47551 | 35836 ft | 382 kts | 223° |
| 2026-05-08 00:01 | 39.10716 | -74.51470 | 35849 ft | 383 kts | 223° |
| 2026-05-08 00:01 | 39.06368 | -74.55365 | 35849 ft | 384 kts | 223° |
| 2026-05-08 00:02 | 39.01976 | -74.59293 | 35849 ft | 385 kts | 223° |
| 2026-05-08 00:02 | 38.97577 | -74.63222 | 35852 ft | 386 kts | 223° |
| 2026-05-08 00:03 | 38.93162 | -74.67158 | 35852 ft | 387 kts | 223° |
| 2026-05-08 00:03 | 38.88740 | -74.71094 | 35849 ft | 387 kts | 223° |
| 2026-05-08 00:04 | 38.84309 | -74.75032 | 35850 ft | 388 kts | 223° |
| 2026-05-08 00:04 | 38.79879 | -74.78963 | 35853 ft | 387 kts | 223° |
| 2026-05-08 00:05 | 38.75435 | -74.82901 | 35848 ft | 387 kts | 223° |
| 2026-05-08 00:05 | 38.71005 | -74.86819 | 35858 ft | 387 kts | 223° |
| 2026-05-08 00:06 | 38.66581 | -74.90727 | 35860 ft | 386 kts | 223° |
| 2026-05-08 00:06 | 38.62170 | -74.94617 | 35858 ft | 385 kts | 223° |
| 2026-05-08 00:07 | 38.57764 | -74.98497 | 35858 ft | 384 kts | 223° |
| 2026-05-08 00:07 | 38.53367 | -75.02364 | 35862 ft | 383 kts | 223° |
| 2026-05-08 00:08 | 38.48988 | -75.06209 | 35862 ft | 382 kts | 224° |
| 2026-05-08 00:08 | 38.44614 | -75.10043 | 35859 ft | 381 kts | 224° |
| 2026-05-08 00:09 | 38.40283 | -75.13835 | 35857 ft | 380 kts | 224° |
| 2026-05-08 00:09 | 38.35937 | -75.17634 | 35854 ft | 379 kts | 224° |
| 2026-05-08 00:10 | 38.31594 | -75.21425 | 35859 ft | 378 kts | 224° |
| 2026-05-08 00:10 | 38.27266 | -75.25197 | 35852 ft | 377 kts | 224° |
| 2026-05-08 00:11 | 38.22940 | -75.28963 | 35863 ft | 376 kts | 224° |
| 2026-05-08 00:11 | 38.18630 | -75.32709 | 35856 ft | 375 kts | 224° |
| 2026-05-08 00:12 | 38.12528 | -75.38004 | 35857 ft | 374 kts | 225° |
| 2026-05-08 00:13 | 38.08201 | -75.41753 | 35868 ft | 374 kts | 225° |
| 2026-05-08 00:13 | 38.03901 | -75.45476 | 35871 ft | 373 kts | 225° |
| 2026-05-08 00:14 | 37.99628 | -75.49207 | 35866 ft | 373 kts | 225° |
| 2026-05-08 00:14 | 37.95359 | -75.52935 | 35865 ft | 372 kts | 225° |
| 2026-05-08 00:15 | 37.91099 | -75.56647 | 35865 ft | 372 kts | 226° |
| 2026-05-08 00:15 | 37.86714 | -75.60184 | 35850 ft | 386 kts | 216° |
| 2026-05-08 00:16 | 37.84133 | -75.61319 | 35876 ft | 399 kts | 209° |
| 2026-05-08 00:16 | 37.81389 | -75.62062 | 35862 ft | 412 kts | 202° |
| 2026-05-08 00:16 | 37.78436 | -75.62195 | 35860 ft | 435 kts | 191° |
| 2026-05-08 00:16 | 37.75405 | -75.61842 | 35874 ft | 439 kts | 190° |
| 2026-05-08 00:17 | 37.69364 | -75.61161 | 35856 ft | 429 kts | 195° |
| 2026-05-08 00:17 | 37.66452 | -75.61363 | 35861 ft | 407 kts | 205° |
| 2026-05-08 00:17 | 37.63662 | -75.61976 | 35873 ft | 404 kts | 206° |
| 2026-05-08 00:18 | 37.58139 | -75.63240 | 35865 ft | 404 kts | 206° |
| 2026-05-08 00:18 | 37.52586 | -75.64476 | 35863 ft | 405 kts | 205° |
| 2026-05-08 00:19 | 37.47030 | -75.65684 | 35860 ft | 406 kts | 205° |
| 2026-05-08 00:19 | 37.41458 | -75.66884 | 35867 ft | 406 kts | 205° |
| 2026-05-08 00:20 | 37.35878 | -75.68083 | 35865 ft | 407 kts | 205° |
| 2026-05-08 00:20 | 37.30297 | -75.69281 | 35857 ft | 408 kts | 205° |
| 2026-05-08 00:21 | 37.24703 | -75.70480 | 35868 ft | 408 kts | 205° |
| 2026-05-08 00:21 | 37.19100 | -75.71680 | 35868 ft | 409 kts | 205° |
| 2026-05-08 00:22 | 37.13519 | -75.72874 | 35869 ft | 410 kts | 205° |
| 2026-05-08 00:22 | 37.07892 | -75.74116 | 35866 ft | 404 kts | 209° |
| 2026-05-08 00:23 | 37.05237 | -75.75119 | 35876 ft | 390 kts | 216° |
| 2026-05-08 00:23 | 37.02840 | -75.76472 | 35866 ft | 375 kts | 223° |
| 2026-05-08 00:23 | 36.98273 | -75.79695 | 35873 ft | 375 kts | 223° |
| 2026-05-08 00:24 | 36.93707 | -75.82885 | 35867 ft | 376 kts | 223° |
| 2026-05-08 00:24 | 36.89131 | -75.86062 | 35867 ft | 376 kts | 223° |
| 2026-05-08 00:25 | 36.84552 | -75.89231 | 35858 ft | 377 kts | 222° |
| 2026-05-08 00:25 | 36.79965 | -75.92399 | 35861 ft | 376 kts | 222° |
| 2026-05-08 00:26 | 36.75416 | -75.95537 | 35866 ft | 376 kts | 222° |
| 2026-05-08 00:26 | 36.70831 | -75.98696 | 35864 ft | 376 kts | 223° |
| 2026-05-08 00:27 | 36.66255 | -76.01844 | 35867 ft | 376 kts | 223° |
| 2026-05-08 00:27 | 36.61673 | -76.04993 | 35867 ft | 376 kts | 223° |
| 2026-05-08 00:28 | 36.57096 | -76.08134 | 35866 ft | 375 kts | 223° |
| 2026-05-08 00:28 | 36.52530 | -76.11263 | 35866 ft | 375 kts | 223° |
| 2026-05-08 00:29 | 36.47951 | -76.14396 | 35865 ft | 375 kts | 223° |
| 2026-05-08 00:29 | 36.43381 | -76.17520 | 35862 ft | 375 kts | 223° |
| 2026-05-08 00:30 | 36.38810 | -76.20640 | 35864 ft | 374 kts | 223° |
| 2026-05-08 00:30 | 36.34240 | -76.23754 | 35864 ft | 374 kts | 223° |
| 2026-05-08 00:31 | 36.29709 | -76.26839 | 35879 ft | 374 kts | 222° |
| 2026-05-08 00:31 | 36.25105 | -76.29969 | 35873 ft | 375 kts | 222° |
| 2026-05-08 00:32 | 36.20563 | -76.33052 | 35875 ft | 375 kts | 222° |
| 2026-05-08 00:32 | 36.15978 | -76.36161 | 35875 ft | 375 kts | 222° |
| 2026-05-08 00:33 | 36.11363 | -76.39286 | 35883 ft | 376 kts | 222° |
| 2026-05-08 00:33 | 36.06798 | -76.42373 | 35883 ft | 376 kts | 222° |
| 2026-05-08 00:34 | 36.02171 | -76.45497 | 35886 ft | 377 kts | 222° |
| 2026-05-08 00:34 | 35.97564 | -76.48604 | 35882 ft | 377 kts | 222° |
| 2026-05-08 00:35 | 35.92959 | -76.51706 | 35883 ft | 378 kts | 222° |
| 2026-05-08 00:35 | 35.88328 | -76.54802 | 35877 ft | 380 kts | 221° |
| 2026-05-08 00:36 | 35.83580 | -76.57749 | 35871 ft | 382 kts | 220° |
| 2026-05-08 00:36 | 35.78813 | -76.60652 | 35866 ft | 383 kts | 220° |
| 2026-05-08 00:37 | 35.74076 | -76.63552 | 35868 ft | 383 kts | 220° |
| 2026-05-08 00:38 | 35.66921 | -76.67949 | 35864 ft | 383 kts | 220° |
| 2026-05-08 00:38 | 35.62149 | -76.70881 | 35864 ft | 384 kts | 220° |
| 2026-05-08 00:39 | 35.57368 | -76.73815 | 35865 ft | 384 kts | 220° |
| 2026-05-08 00:39 | 35.52584 | -76.76746 | 35868 ft | 384 kts | 220° |
| 2026-05-08 00:40 | 35.47788 | -76.79681 | 35863 ft | 385 kts | 220° |
| 2026-05-08 00:40 | 35.42998 | -76.82609 | 35859 ft | 385 kts | 220° |
| 2026-05-08 00:41 | 35.38197 | -76.85539 | 35856 ft | 386 kts | 220° |
| 2026-05-08 00:41 | 35.33400 | -76.88463 | 35853 ft | 386 kts | 220° |
| 2026-05-08 00:42 | 35.28583 | -76.91396 | 35846 ft | 386 kts | 220° |
| 2026-05-08 00:42 | 35.23751 | -76.94335 | 35855 ft | 387 kts | 220° |
| 2026-05-08 00:43 | 35.18960 | -76.97319 | 35857 ft | 386 kts | 220° |
| 2026-05-08 00:43 | 35.14177 | -77.00331 | 35859 ft | 387 kts | 220° |
| 2026-05-08 00:44 | 35.10184 | -77.02838 | 35859 ft | 388 kts | 220° |
| 2026-05-08 00:44 | 35.05371 | -77.05851 | 35862 ft | 389 kts | 220° |
| 2026-05-08 00:45 | 35.00548 | -77.08863 | 35856 ft | 390 kts | 220° |
| 2026-05-08 00:45 | 34.95719 | -77.11874 | 35856 ft | 390 kts | 220° |
| 2026-05-08 00:46 | 34.90879 | -77.14888 | 35849 ft | 391 kts | 220° |
| 2026-05-08 00:46 | 34.86023 | -77.17909 | 35827 ft | 391 kts | 220° |
| 2026-05-08 00:47 | 34.81199 | -77.20905 | 35816 ft | 392 kts | 220° |
| 2026-05-08 00:47 | 34.76310 | -77.23938 | 35820 ft | 392 kts | 220° |
| 2026-05-08 00:48 | 34.71449 | -77.26949 | 35820 ft | 392 kts | 220° |
| 2026-05-08 00:48 | 34.66981 | -77.29714 | 35821 ft | 392 kts | 220° |
| 2026-05-08 00:49 | 34.62113 | -77.32722 | 35821 ft | 392 kts | 220° |
| 2026-05-08 00:49 | 34.57282 | -77.35705 | 35823 ft | 392 kts | 220° |
| 2026-05-08 00:50 | 34.52417 | -77.38703 | 35817 ft | 392 kts | 220° |
| 2026-05-08 00:50 | 34.47285 | -77.41263 | 35815 ft | 410 kts | 209° |
| 2026-05-08 00:50 | 34.44443 | -77.41959 | 35820 ft | 422 kts | 204° |
| 2026-05-08 00:51 | 34.41540 | -77.42516 | 35811 ft | 423 kts | 203° |
| 2026-05-08 00:51 | 34.35730 | -77.43601 | 35810 ft | 422 kts | 203° |
| 2026-05-08 00:52 | 34.29929 | -77.44705 | 35806 ft | 422 kts | 203° |
| 2026-05-08 00:52 | 34.24135 | -77.45830 | 35809 ft | 422 kts | 203° |
| 2026-05-08 00:53 | 34.18343 | -77.46960 | 35808 ft | 422 kts | 203° |
| 2026-05-08 00:53 | 34.12541 | -77.48091 | 35809 ft | 422 kts | 203° |
| 2026-05-08 00:54 | 34.06734 | -77.49221 | 35811 ft | 423 kts | 203° |
| 2026-05-08 00:54 | 34.00919 | -77.50351 | 35810 ft | 424 kts | 203° |
| 2026-05-08 00:55 | 33.95092 | -77.51481 | 35819 ft | 425 kts | 203° |
| 2026-05-08 00:55 | 33.89248 | -77.52613 | 35814 ft | 425 kts | 203° |
| 2026-05-08 00:56 | 33.83404 | -77.53743 | 35818 ft | 426 kts | 203° |
| 2026-05-08 00:56 | 33.77539 | -77.54876 | 35817 ft | 427 kts | 203° |
| 2026-05-08 00:57 | 33.71657 | -77.56010 | 35820 ft | 428 kts | 203° |
| 2026-05-08 00:57 | 33.65757 | -77.57146 | 35823 ft | 429 kts | 202° |
| 2026-05-08 00:58 | 33.59892 | -77.58274 | 35820 ft | 430 kts | 202° |
| 2026-05-08 00:58 | 33.54172 | -77.59871 | 35828 ft | 417 kts | 209° |
| 2026-05-08 00:59 | 33.48614 | -77.61864 | 35821 ft | 417 kts | 210° |
| 2026-05-08 00:59 | 33.43055 | -77.63859 | 35819 ft | 418 kts | 209° |
| 2026-05-08 01:00 | 33.37472 | -77.65829 | 35824 ft | 418 kts | 209° |
| 2026-05-08 01:00 | 33.31884 | -77.67782 | 35829 ft | 419 kts | 209° |
| 2026-05-08 01:01 | 33.26292 | -77.69729 | 35832 ft | 419 kts | 209° |
| 2026-05-08 01:01 | 33.20690 | -77.71678 | 35835 ft | 419 kts | 209° |
| 2026-05-08 01:02 | 33.15096 | -77.73622 | 35835 ft | 419 kts | 208° |
| 2026-05-08 01:02 | 33.09493 | -77.75567 | 35835 ft | 419 kts | 208° |
| 2026-05-08 01:03 | 33.03890 | -77.77510 | 35837 ft | 419 kts | 208° |
| 2026-05-08 01:03 | 32.98299 | -77.79446 | 35847 ft | 419 kts | 208° |
| 2026-05-08 01:04 | 32.92688 | -77.81385 | 35842 ft | 419 kts | 208° |
| 2026-05-08 01:04 | 32.87086 | -77.83320 | 35839 ft | 419 kts | 208° |
| 2026-05-08 01:05 | 32.81483 | -77.85252 | 35845 ft | 419 kts | 208° |
| 2026-05-08 01:05 | 32.75886 | -77.87180 | 35853 ft | 419 kts | 208° |
| 2026-05-08 01:06 | 32.70288 | -77.89106 | 35858 ft | 419 kts | 208° |
| 2026-05-08 01:06 | 32.64691 | -77.91011 | 35853 ft | 419 kts | 207° |
| 2026-05-08 01:07 | 32.59062 | -77.92838 | 35853 ft | 420 kts | 207° |
| 2026-05-08 01:07 | 32.53418 | -77.94652 | 35860 ft | 420 kts | 207° |
| 2026-05-08 01:08 | 32.47782 | -77.96469 | 35861 ft | 420 kts | 207° |
| 2026-05-08 01:08 | 32.42159 | -77.98287 | 35869 ft | 420 kts | 207° |
| 2026-05-08 01:09 | 32.36552 | -78.00099 | 35859 ft | 420 kts | 206° |
| 2026-05-08 01:09 | 32.30919 | -78.01917 | 35876 ft | 420 kts | 206° |
| 2026-05-08 01:10 | 32.25275 | -78.03737 | 35879 ft | 421 kts | 206° |
| 2026-05-08 01:10 | 32.19616 | -78.05559 | 35884 ft | 421 kts | 206° |
| 2026-05-08 01:11 | 32.13958 | -78.07378 | 35885 ft | 422 kts | 206° |
| 2026-05-08 01:11 | 32.08286 | -78.09198 | 35888 ft | 422 kts | 206° |
| 2026-05-08 01:12 | 32.02606 | -78.11020 | 35890 ft | 423 kts | 206° |
| 2026-05-08 01:12 | 31.96917 | -78.12842 | 35889 ft | 424 kts | 206° |
| 2026-05-08 01:13 | 31.91229 | -78.14661 | 35891 ft | 424 kts | 205° |
| 2026-05-08 01:13 | 31.85527 | -78.16482 | 35899 ft | 425 kts | 205° |
| 2026-05-08 01:14 | 31.79848 | -78.18294 | 35899 ft | 425 kts | 205° |
| 2026-05-08 01:14 | 31.74123 | -78.20118 | 35904 ft | 426 kts | 205° |
| 2026-05-08 01:15 | 31.68399 | -78.21939 | 35906 ft | 426 kts | 205° |
| 2026-05-08 01:15 | 31.62681 | -78.23756 | 35908 ft | 426 kts | 205° |
| 2026-05-08 01:16 | 31.56947 | -78.25576 | 35903 ft | 427 kts | 205° |
| 2026-05-08 01:16 | 31.51217 | -78.27393 | 35903 ft | 427 kts | 205° |
| 2026-05-08 01:17 | 31.45488 | -78.29215 | 35905 ft | 426 kts | 205° |
| 2026-05-08 01:17 | 31.39792 | -78.31114 | 35908 ft | 426 kts | 205° |
| 2026-05-08 01:18 | 31.34096 | -78.33038 | 35911 ft | 426 kts | 205° |
| 2026-05-08 01:18 | 31.28398 | -78.34954 | 35921 ft | 427 kts | 205° |
| 2026-05-08 01:19 | 31.22686 | -78.36865 | 35918 ft | 427 kts | 205° |
| 2026-05-08 01:19 | 31.16959 | -78.38776 | 35916 ft | 428 kts | 205° |
| 2026-05-08 01:20 | 31.11229 | -78.40685 | 35923 ft | 429 kts | 205° |
| 2026-05-08 01:20 | 31.05476 | -78.42599 | 35917 ft | 430 kts | 205° |
| 2026-05-08 01:21 | 30.99714 | -78.44514 | 35922 ft | 431 kts | 204° |
| 2026-05-08 01:21 | 30.93951 | -78.46427 | 35923 ft | 432 kts | 204° |
| 2026-05-08 01:22 | 30.88163 | -78.48345 | 35922 ft | 433 kts | 204° |
| 2026-05-08 01:22 | 30.82362 | -78.50266 | 35923 ft | 434 kts | 204° |
| 2026-05-08 01:23 | 30.74232 | -78.52953 | 35922 ft | 435 kts | 204° |
| 2026-05-08 01:24 | 30.68400 | -78.54878 | 35932 ft | 435 kts | 204° |
| 2026-05-08 01:24 | 30.62573 | -78.56798 | 35925 ft | 436 kts | 204° |
| 2026-05-08 01:25 | 30.56737 | -78.58719 | 35921 ft | 436 kts | 204° |
| 2026-05-08 01:25 | 30.50900 | -78.60639 | 35919 ft | 436 kts | 204° |
| 2026-05-08 01:26 | 30.45061 | -78.62556 | 35922 ft | 436 kts | 204° |
| 2026-05-08 01:26 | 30.39223 | -78.64471 | 35931 ft | 436 kts | 204° |
| 2026-05-08 01:27 | 30.33391 | -78.66382 | 35930 ft | 436 kts | 204° |
| 2026-05-08 01:27 | 30.27558 | -78.68290 | 35928 ft | 436 kts | 204° |
| 2026-05-08 01:28 | 30.21723 | -78.70197 | 35928 ft | 435 kts | 204° |
| 2026-05-08 01:28 | 30.15896 | -78.72099 | 35934 ft | 435 kts | 204° |
| 2026-05-08 01:29 | 30.10064 | -78.74001 | 35934 ft | 435 kts | 204° |
| 2026-05-08 01:29 | 30.04267 | -78.75888 | 35932 ft | 435 kts | 204° |
| 2026-05-08 01:30 | 29.98444 | -78.77782 | 35926 ft | 435 kts | 204° |
| 2026-05-08 01:30 | 29.92614 | -78.79676 | 35936 ft | 435 kts | 204° |
| 2026-05-08 01:31 | 29.86786 | -78.81567 | 35937 ft | 435 kts | 204° |
| 2026-05-08 01:31 | 29.80964 | -78.83454 | 35930 ft | 435 kts | 204° |
| 2026-05-08 01:32 | 29.74999 | -78.84879 | 35950 ft | 444 kts | 195° |
| 2026-05-08 01:32 | 29.68837 | -78.85670 | 35944 ft | 445 kts | 194° |
| 2026-05-08 01:33 | 29.62678 | -78.86430 | 35934 ft | 446 kts | 195° |
| 2026-05-08 01:33 | 29.56518 | -78.87231 | 35940 ft | 445 kts | 195° |
| 2026-05-08 01:34 | 29.50358 | -78.88055 | 35939 ft | 446 kts | 195° |
| 2026-05-08 01:34 | 29.44203 | -78.88884 | 35941 ft | 446 kts | 195° |
| 2026-05-08 01:35 | 29.38039 | -78.89714 | 35943 ft | 446 kts | 195° |
| 2026-05-08 01:35 | 29.31875 | -78.90541 | 35942 ft | 446 kts | 195° |
| 2026-05-08 01:36 | 29.25694 | -78.91368 | 35945 ft | 447 kts | 194° |
| 2026-05-08 01:36 | 29.19561 | -78.92189 | 35947 ft | 447 kts | 194° |
| 2026-05-08 01:37 | 29.13342 | -78.93020 | 35951 ft | 447 kts | 194° |
| 2026-05-08 01:37 | 29.07205 | -78.93838 | 35948 ft | 447 kts | 194° |
| 2026-05-08 01:38 | 29.01025 | -78.94662 | 35953 ft | 447 kts | 194° |
| 2026-05-08 01:38 | 28.94844 | -78.95485 | 35953 ft | 447 kts | 194° |
| 2026-05-08 01:39 | 28.88657 | -78.96308 | 35956 ft | 448 kts | 194° |
| 2026-05-08 01:39 | 28.82458 | -78.97131 | 35955 ft | 448 kts | 194° |
| 2026-05-08 01:40 | 28.76272 | -78.97951 | 35956 ft | 448 kts | 194° |
| 2026-05-08 01:40 | 28.70075 | -78.98772 | 35957 ft | 448 kts | 194° |
| 2026-05-08 01:41 | 28.63883 | -78.99592 | 35959 ft | 448 kts | 194° |
| 2026-05-08 01:41 | 28.57691 | -79.00410 | 35959 ft | 448 kts | 193° |
| 2026-05-08 01:42 | 28.51502 | -79.01227 | 35962 ft | 448 kts | 193° |
| 2026-05-08 01:42 | 28.45315 | -79.02043 | 35966 ft | 448 kts | 193° |
| 2026-05-08 01:43 | 28.39223 | -79.02841 | 35723 ft | 432 kts | 193° |
| 2026-05-08 01:43 | 28.36255 | -79.03230 | 35373 ft | 428 kts | 194° |
| 2026-05-08 01:43 | 28.33328 | -79.03784 | 34806 ft | 423 kts | 202° |
| 2026-05-08 01:43 | 28.30557 | -79.04747 | 34188 ft | 423 kts | 205° |
| 2026-05-08 01:44 | 28.27728 | -79.05824 | 33511 ft | 426 kts | 206° |
| 2026-05-08 01:44 | 28.24903 | -79.06918 | 32856 ft | 429 kts | 205° |
| 2026-05-08 01:44 | 28.22073 | -79.08010 | 32268 ft | 430 kts | 205° |
| 2026-05-08 01:44 | 28.19243 | -79.09089 | 31722 ft | 430 kts | 205° |
| 2026-05-08 01:45 | 28.16397 | -79.10164 | 31211 ft | 430 kts | 205° |
| 2026-05-08 01:45 | 28.13568 | -79.11222 | 31096 ft | 430 kts | 204° |
| 2026-05-08 01:45 | 28.10702 | -79.12293 | 31003 ft | 435 kts | 204° |
| 2026-05-08 01:46 | 28.04988 | -79.14419 | 30962 ft | 435 kts | 204° |
| 2026-05-08 01:46 | 27.99246 | -79.16548 | 30963 ft | 433 kts | 204° |
| 2026-05-08 01:47 | 27.93509 | -79.18676 | 30967 ft | 433 kts | 204° |
| 2026-05-08 01:47 | 27.87789 | -79.20797 | 30970 ft | 433 kts | 204° |
| 2026-05-08 01:48 | 27.79180 | -79.23985 | 30978 ft | 434 kts | 204° |
| 2026-05-08 01:48 | 27.73479 | -79.26093 | 30979 ft | 434 kts | 204° |
| 2026-05-08 01:49 | 27.67733 | -79.28215 | 30977 ft | 435 kts | 204° |
| 2026-05-08 01:49 | 27.61940 | -79.30352 | 30981 ft | 435 kts | 204° |
| 2026-05-08 01:50 | 27.56221 | -79.32460 | 30979 ft | 436 kts | 204° |
| 2026-05-08 01:50 | 27.50448 | -79.34585 | 30984 ft | 437 kts | 204° |
| 2026-05-08 01:51 | 27.44664 | -79.36711 | 30986 ft | 437 kts | 204° |
| 2026-05-08 01:51 | 27.38874 | -79.38838 | 30986 ft | 438 kts | 204° |
| 2026-05-08 01:52 | 27.33086 | -79.40962 | 30985 ft | 438 kts | 204° |
| 2026-05-08 01:52 | 27.27291 | -79.43085 | 30985 ft | 438 kts | 203° |
| 2026-05-08 01:53 | 27.21485 | -79.45210 | 30986 ft | 439 kts | 203° |
| 2026-05-08 01:53 | 27.15691 | -79.47327 | 30940 ft | 433 kts | 203° |
| 2026-05-08 01:54 | 27.13799 | -79.48016 | 30736 ft | 429 kts | 203° |
| 2026-05-08 01:54 | 27.10969 | -79.49050 | 30296 ft | 427 kts | 203° |
| 2026-05-08 01:54 | 27.08132 | -79.50089 | 29548 ft | 431 kts | 203° |
| 2026-05-08 01:54 | 27.05266 | -79.51137 | 28678 ft | 437 kts | 203° |
| 2026-05-08 01:55 | 27.02354 | -79.52201 | 27830 ft | 442 kts | 203° |
| 2026-05-08 01:55 | 26.99414 | -79.53272 | 27029 ft | 447 kts | 203° |
| 2026-05-08 01:55 | 26.96450 | -79.54350 | 26262 ft | 450 kts | 203° |
| 2026-05-08 01:55 | 26.93461 | -79.55437 | 25600 ft | 450 kts | 203° |
| 2026-05-08 01:56 | 26.90498 | -79.56513 | 25343 ft | 448 kts | 203° |
| 2026-05-08 01:56 | 26.87528 | -79.57591 | 25236 ft | 447 kts | 203° |
| 2026-05-08 01:56 | 26.84571 | -79.58658 | 25112 ft | 447 kts | 203° |
| 2026-05-08 01:56 | 26.81621 | -79.59721 | 25024 ft | 446 kts | 203° |
| 2026-05-08 01:57 | 26.78673 | -79.60782 | 24998 ft | 440 kts | 203° |
| 2026-05-08 01:57 | 26.75882 | -79.61781 | 25022 ft | 417 kts | 203° |
| 2026-05-08 01:57 | 26.73143 | -79.62759 | 24995 ft | 392 kts | 203° |
| 2026-05-08 01:57 | 26.70626 | -79.63663 | 24982 ft | 368 kts | 204° |
| 2026-05-08 01:58 | 26.68233 | -79.64528 | 24950 ft | 358 kts | 204° |
| 2026-05-08 01:58 | 26.65857 | -79.65392 | 24968 ft | 362 kts | 204° |
| 2026-05-08 01:58 | 26.63420 | -79.66278 | 24731 ft | 376 kts | 204° |
| 2026-05-08 01:58 | 26.60886 | -79.67187 | 24090 ft | 387 kts | 203° |
| 2026-05-08 01:59 | 26.58274 | -79.68104 | 23122 ft | 402 kts | 202° |
| 2026-05-08 01:59 | 26.55552 | -79.69052 | 21892 ft | 419 kts | 202° |
| 2026-05-08 01:59 | 26.52728 | -79.70035 | 21063 ft | 426 kts | 201° |
| 2026-05-08 01:59 | 26.49952 | -79.71002 | 20576 ft | 422 kts | 202° |
| 2026-05-08 02:00 | 26.47272 | -79.72237 | 20156 ft | 412 kts | 212° |
| 2026-05-08 02:00 | 26.44877 | -79.73934 | 19699 ft | 405 kts | 220° |
| 2026-05-08 02:00 | 26.42777 | -79.75984 | 19183 ft | 399 kts | 230° |
| 2026-05-08 02:00 | 26.40909 | -79.78282 | 18345 ft | 403 kts | 231° |
| 2026-05-08 02:01 | 26.39044 | -79.80617 | 17396 ft | 401 kts | 231° |
| 2026-05-08 02:01 | 26.37340 | -79.83055 | 16516 ft | 397 kts | 238° |
| 2026-05-08 02:01 | 26.35839 | -79.85536 | 16286 ft | 378 kts | 237° |
| 2026-05-08 02:01 | 26.34378 | -79.87899 | 16078 ft | 360 kts | 237° |
| 2026-05-08 02:02 | 26.32938 | -79.90209 | 14783 ft | 374 kts | 236° |
| 2026-05-08 02:02 | 26.31432 | -79.92615 | 13701 ft | 383 kts | 236° |
| 2026-05-08 02:02 | 26.29889 | -79.95075 | 12587 ft | 388 kts | 236° |
| 2026-05-08 02:02 | 26.28328 | -79.97563 | 11497 ft | 394 kts | 236° |
| 2026-05-08 02:03 | 26.26689 | -80.00015 | 10454 ft | 399 kts | 227° |
| 2026-05-08 02:03 | 26.24512 | -80.01926 | 9681 ft | 396 kts | 209° |
| 2026-05-08 02:03 | 26.22037 | -80.03060 | 9522 ft | 375 kts | 194° |
| 2026-05-08 02:03 | 26.19623 | -80.03621 | 9398 ft | 356 kts | 191° |
| 2026-05-08 02:04 | 26.17215 | -80.04118 | 9268 ft | 339 kts | 191° |
| 2026-05-08 02:04 | 26.14956 | -80.04593 | 9163 ft | 323 kts | 191° |
| 2026-05-08 02:04 | 26.12828 | -80.05059 | 8997 ft | 310 kts | 191° |
| 2026-05-08 02:04 | 26.10695 | -80.05540 | 8595 ft | 307 kts | 191° |
| 2026-05-08 02:05 | 26.08614 | -80.06014 | 8122 ft | 307 kts | 191° |
| 2026-05-08 02:05 | 26.06541 | -80.06491 | 7729 ft | 307 kts | 192° |
| 2026-05-08 02:05 | 26.04468 | -80.07018 | 7445 ft | 305 kts | 193° |
| 2026-05-08 02:05 | 26.02408 | -80.07563 | 7152 ft | 303 kts | 194° |
| 2026-05-08 02:06 | 26.00368 | -80.08102 | 6851 ft | 302 kts | 193° |
| 2026-05-08 02:06 | 25.98325 | -80.08635 | 6557 ft | 300 kts | 193° |
| 2026-05-08 02:06 | 25.96295 | -80.09163 | 6240 ft | 299 kts | 193° |
| 2026-05-08 02:06 | 25.94276 | -80.09690 | 5896 ft | 299 kts | 195° |
| 2026-05-08 02:07 | 25.92426 | -80.10697 | 5496 ft | 298 kts | 221° |
| 2026-05-08 02:07 | 25.91126 | -80.12443 | 5206 ft | 293 kts | 242° |
| 2026-05-08 02:07 | 25.90164 | -80.14421 | 5047 ft | 291 kts | 243° |
| 2026-05-08 02:07 | 25.89205 | -80.16428 | 5011 ft | 295 kts | 243° |
| 2026-05-08 02:08 | 25.88245 | -80.18441 | 5001 ft | 293 kts | 246° |
| 2026-05-08 02:08 | 25.87766 | -80.20597 | 5006 ft | 288 kts | 268° |
| 2026-05-08 02:08 | 25.87703 | -80.22829 | 5011 ft | 291 kts | 270° |
| 2026-05-08 02:08 | 25.87649 | -80.25073 | 4999 ft | 291 kts | 269° |
| 2026-05-08 02:09 | 25.87589 | -80.27280 | 4994 ft | 291 kts | 269° |
| 2026-05-08 02:09 | 25.87756 | -80.29310 | 4981 ft | 289 kts | 289° |
| 2026-05-08 02:09 | 25.88599 | -80.31329 | 5005 ft | 286 kts | 300° |
| 2026-05-08 02:09 | 25.89560 | -80.33247 | 4998 ft | 287 kts | 300° |
| 2026-05-08 02:10 | 25.90524 | -80.35179 | 4999 ft | 287 kts | 300° |
| 2026-05-08 02:10 | 25.91477 | -80.37112 | 4940 ft | 281 kts | 299° |
| 2026-05-08 02:10 | 25.92390 | -80.38980 | 4579 ft | 275 kts | 299° |
| 2026-05-08 02:10 | 25.93308 | -80.40876 | 4088 ft | 275 kts | 296° |
| 2026-05-08 02:11 | 25.93777 | -80.42910 | 3610 ft | 275 kts | 272° |
| 2026-05-08 02:11 | 25.93749 | -80.45019 | 3183 ft | 272 kts | 269° |
| 2026-05-08 02:11 | 25.93703 | -80.47082 | 3031 ft | 259 kts | 269° |
| 2026-05-08 02:11 | 25.93635 | -80.49019 | 2977 ft | 242 kts | 262° |
| 2026-05-08 02:12 | 25.93031 | -80.50635 | 2972 ft | 222 kts | 229° |
| 2026-05-08 02:12 | 25.91826 | -80.51534 | 2965 ft | 202 kts | 195° |
| 2026-05-08 02:12 | 25.90506 | -80.51806 | 2954 ft | 199 kts | 188° |
| 2026-05-08 02:12 | 25.88956 | -80.52039 | 2966 ft | 246 kts | 188° |
| 2026-05-08 02:13 | 25.87144 | -80.52304 | 3005 ft | 277 kts | 188° |
| 2026-05-08 02:13 | 25.85156 | -80.52598 | 3004 ft | 298 kts | 188° |
| 2026-05-08 02:13 | 25.83044 | -80.52899 | 3005 ft | 313 kts | 184° |
| 2026-05-08 02:13 | 25.80864 | -80.52516 | 2993 ft | 325 kts | 155° |
| 2026-05-08 02:14 | 25.79080 | -80.50978 | 2995 ft | 329 kts | 127° |
| 2026-05-08 02:14 | 25.78192 | -80.48678 | 2993 ft | 327 kts | 97° |
| 2026-05-08 02:14 | 25.78426 | -80.46225 | 2851 ft | 322 kts | 70° |
| 2026-05-08 02:14 | 25.79199 | -80.43922 | 2862 ft | 314 kts | 72° |
| 2026-05-08 02:15 | 25.79660 | -80.41664 | 3095 ft | 278 kts | 79° |
| 2026-05-08 02:15 | 25.79918 | -80.39606 | 2687 ft | 260 kts | 84° |
| 2026-05-08 02:15 | 25.80036 | -80.37697 | 2196 ft | 244 kts | 88° |
| 2026-05-08 02:15 | 25.80072 | -80.35852 | 1582 ft | 236 kts | 87° |
| 2026-05-08 02:16 | 25.80143 | -80.34045 | 1008 ft | 227 kts | 90° |
| 2026-05-08 02:16 | 25.80202 | -80.32328 | 516 ft | 217 kts | 89° |
| 2026-05-08 02:16 | 25.80273 | -80.30750 | 206 ft | 199 kts | 89° |
| 2026-05-08 02:16 | 25.80319 | -80.29283 | 110 ft | 182 kts | 89° |
| 2026-05-08 02:17 | 25.80405 | -80.27964 | 1134 ft | 165 kts | 87° |
| 2026-05-08 02:17 | 25.80507 | -80.26560 | 1453 ft | 203 kts | 86° |
| 2026-05-08 02:17 | 25.80681 | -80.24889 | 1781 ft | 226 kts | 74° |
| 2026-05-08 02:17 | 25.81598 | -80.23459 | 2269 ft | 238 kts | 32° |
| 2026-05-08 02:18 | 25.83151 | -80.22957 | 2617 ft | 234 kts | 355° |
| 2026-05-08 02:18 | 25.84641 | -80.23578 | 2485 ft | 230 kts | 315° |
| 2026-05-08 02:18 | 25.85468 | -80.25040 | 2452 ft | 224 kts | 289° |
| 2026-05-08 02:18 | 25.85823 | -80.26723 | 2449 ft | 222 kts | 276° |
| 2026-05-08 02:19 | 25.85980 | -80.28601 | 2532 ft | 268 kts | 273° |
| 2026-05-08 02:19 | 25.86067 | -80.30776 | 2702 ft | 287 kts | 271° |
| 2026-05-08 02:19 | 25.86028 | -80.33050 | 2486 ft | 299 kts | 266° |
| 2026-05-08 02:19 | 25.85866 | -80.35356 | 2611 ft | 296 kts | 264° |
| 2026-05-08 02:20 | 25.85607 | -80.37537 | 3321 ft | 278 kts | 259° |
| 2026-05-08 02:20 | 25.85248 | -80.39627 | 3469 ft | 279 kts | 261° |
| 2026-05-08 02:20 | 25.84893 | -80.41723 | 3823 ft | 268 kts | 259° |
| 2026-05-08 02:20 | 25.84515 | -80.43716 | 4101 ft | 264 kts | 257° |
| 2026-05-08 02:21 | 25.83657 | -80.45517 | 4085 ft | 271 kts | 221° |
| 2026-05-08 02:21 | 25.81999 | -80.46474 | 4213 ft | 272 kts | 192° |
| 2026-05-08 02:21 | 25.80116 | -80.46644 | 4293 ft | 273 kts | 175° |
| 2026-05-08 02:21 | 25.78397 | -80.45805 | 3645 ft | 280 kts | 135° |
| 2026-05-08 02:22 | 25.77468 | -80.43970 | 3046 ft | 277 kts | 97° |
| 2026-05-08 02:22 | 25.77947 | -80.41834 | 2546 ft | 301 kts | 60° |
| 2026-05-08 02:22 | 25.78988 | -80.39882 | 2008 ft | 285 kts | 62° |
| 2026-05-08 02:22 | 25.79709 | -80.37942 | 1573 ft | 267 kts | 74° |
| 2026-05-08 02:23 | 25.80048 | -80.35970 | 1001 ft | 253 kts | 85° |
| 2026-05-08 02:23 | 25.80149 | -80.34120 | 813 ft | 228 kts | 90° |
| 2026-05-08 02:23 | 25.80201 | -80.32424 | 453 ft | 218 kts | 89° |
| 2026-05-08 02:23 | 25.80273 | -80.30805 | 225 ft | 196 kts | 88° |
| 2026-05-08 02:24 | 25.80318 | -80.29367 | 28 ft | 174 kts | 89° |
| 2026-05-08 02:24 | 25.80372 | -80.28180 | 18 ft | 108 kts | 88° |
| 2026-05-08 02:24 | 25.80391 | -80.27679 | 18 ft | 36 kts | 97° |
| 2026-05-08 02:24 | 25.80288 | -80.27634 | 17 ft | 16 kts | 177° |
| 2026-05-08 02:25 | 25.80184 | -80.27628 | 16 ft | 14 kts | 177° |
| 2026-05-08 02:25 | 25.80095 | -80.27619 | 17 ft | 12 kts | 161° |
| 2026-05-08 02:25 | 25.80067 | -80.27551 | 17 ft | 10 kts | 92° |
| 2026-05-08 02:25 | 25.80038 | -80.27495 | 17 ft | 9 kts | 145° |
| 2026-05-08 02:26 | 25.79992 | -80.27452 | 19 ft | 11 kts | 109° |
| 2026-05-08 02:26 | 25.79986 | -80.27374 | 20 ft | 8 kts | 92° |
| 2026-05-08 02:26 | 25.79978 | -80.27339 | 24 ft | 0 kts | 125° |
| 2026-05-08 02:26 | 25.79949 | -80.27321 | 21 ft | 16 kts | 166° |
| 2026-05-08 02:27 | 25.79917 | -80.27320 | 21 ft | 10 kts | 180° |
| 2026-05-08 02:27 | 25.79912 | -80.27320 | 21 ft | 0 kts | 177° |
| 2026-05-08 02:27 | 25.79909 | -80.27319 | 21 ft | 1 kts | 171° |
| 2026-05-08 02:27 | 25.79906 | -80.27319 | 21 ft | 0 kts | 171° |